createdAt,value
2023-01-09T00:00:29.692Z,16.50
2023-01-09T00:02:57.414Z,14.30
2023-01-09T00:05:24.924Z,15.32
2023-01-09T00:07:52.283Z,16.15
2023-01-09T00:10:20.171Z,17.20
2023-01-09T00:12:47.493Z,15.10
2023-01-09T00:15:14.851Z,15.65
2023-01-09T00:17:42.516Z,15.60
2023-01-09T00:20:10.897Z,15.48
2023-01-09T00:22:38.249Z,14.95
2023-01-09T00:25:06.058Z,14.73
2023-01-09T00:27:34.009Z,15.93
2023-01-09T00:30:01.462Z,15.35
2023-01-09T00:32:29.319Z,15.00
2023-01-09T00:34:56.811Z,15.02
2023-01-09T00:37:24.238Z,15.15
2023-01-09T00:39:51.852Z,14.50
2023-01-09T00:42:21.238Z,14.48
2023-01-09T00:44:54.226Z,13.55
2023-01-09T00:47:43.082Z,14.40
2023-01-09T00:50:13.688Z,15.30
2023-01-09T00:52:41.366Z,15.27
2023-01-09T00:55:08.789Z,15.82
2023-01-09T00:57:36.156Z,15.90
2023-01-09T01:00:04.157Z,15.20
2023-01-09T01:02:31.621Z,15.15
2023-01-09T01:05:17.740Z,15.13
2023-01-09T01:10:20.101Z,16.05
2023-01-09T01:12:48.022Z,15.60
2023-01-09T01:15:15.749Z,15.70
2023-01-09T01:17:43.370Z,13.60
2023-01-09T01:20:16.597Z,16.90
2023-01-09T01:22:44.058Z,14.80
2023-01-09T01:25:12.370Z,16.00
2023-01-09T01:27:39.752Z,16.48
2023-01-09T01:30:08.029Z,14.93
2023-01-09T01:32:35.669Z,14.60
2023-01-09T01:35:03.683Z,16.08
2023-01-09T01:37:31.285Z,15.77
2023-01-09T01:39:58.940Z,16.02
2023-01-09T01:42:26.285Z,16.60
2023-01-09T01:45:06.601Z,15.77
2023-01-09T01:47:55.493Z,16.75
2023-01-09T01:50:46.818Z,15.65
2023-01-09T01:53:15.580Z,14.02
2023-01-09T01:55:52.529Z,14.87
2023-01-09T01:58:20.216Z,13.40
2023-01-09T02:00:47.809Z,15.13
2023-01-09T02:03:16.787Z,14.25
2023-01-09T02:05:44.397Z,13.40
2023-01-09T02:08:11.831Z,12.40
2023-01-09T02:10:39.495Z,12.68
2023-01-09T02:13:07.470Z,14.20
2023-01-09T02:16:02.397Z,13.38
2023-01-09T02:18:51.979Z,12.52
2023-01-09T02:21:22.215Z,13.27
2023-01-09T02:24:08.953Z,14.55
2023-01-09T02:26:48.307Z,13.07
2023-01-09T02:29:50.398Z,12.70
2023-01-09T02:32:47.100Z,13.50
2023-01-09T02:35:20.648Z,12.50
2023-01-09T02:38:00.375Z,13.35
2023-01-09T02:40:39.934Z,12.95
2023-01-09T02:43:07.330Z,12.13
2023-01-09T02:45:35.150Z,12.30
2023-01-09T02:48:02.578Z,12.37
2023-01-09T02:50:35.949Z,12.75
2023-01-09T02:53:35.586Z,13.10
2023-01-09T02:56:11.944Z,13.05
2023-01-09T03:01:29.170Z,11.85
2023-01-09T03:04:02.846Z,11.93
2023-01-09T03:06:35.214Z,13.48
2023-01-09T03:09:09.145Z,12.37
2023-01-09T03:11:40.157Z,12.23
2023-01-09T03:14:11.379Z,13.90
2023-01-09T03:16:38.820Z,12.37
2023-01-09T03:19:08.281Z,13.13
2023-01-09T03:21:35.875Z,12.52
2023-01-09T03:24:03.308Z,12.20
2023-01-09T03:26:31.110Z,13.73
2023-01-09T03:28:59.182Z,13.50
2023-01-09T03:31:26.693Z,12.93
2023-01-09T03:33:54.066Z,15.30
2023-01-09T03:36:23.495Z,14.00
2023-01-09T03:38:51.488Z,12.90
2023-01-09T03:41:19.508Z,13.40
2023-01-09T03:43:48.436Z,13.10
2023-01-09T03:46:16.674Z,13.75
2023-01-09T03:48:44.007Z,14.35
2023-01-09T03:51:11.631Z,13.88
2023-01-09T03:53:39.030Z,13.68
2023-01-09T03:56:06.609Z,12.98
2023-01-09T03:58:34.229Z,13.05
2023-01-09T04:01:03.062Z,13.32
2023-01-09T04:03:31.045Z,13.90
2023-01-09T04:05:58.414Z,14.90
2023-01-09T04:08:25.789Z,13.00
2023-01-09T04:10:53.398Z,12.55
2023-01-09T04:13:20.776Z,14.10
2023-01-09T04:15:48.209Z,13.40
2023-01-09T04:18:15.840Z,12.32
2023-01-09T04:20:43.210Z,13.65
2023-01-09T04:23:10.669Z,13.88
2023-01-09T04:25:38.314Z,14.13
2023-01-09T04:28:05.754Z,14.57
2023-01-09T04:30:33.274Z,14.00
2023-01-09T04:33:00.890Z,13.45
2023-01-09T04:35:28.236Z,14.55
2023-01-09T04:37:55.810Z,13.32
2023-01-09T04:40:23.444Z,14.32
2023-01-09T04:42:50.809Z,13.75
2023-01-09T04:45:18.341Z,14.68
2023-01-09T04:47:46.050Z,13.62
2023-01-09T04:50:13.432Z,14.68
2023-01-09T04:52:40.898Z,13.38
2023-01-09T04:55:08.649Z,15.32
2023-01-09T04:57:36.221Z,14.35
2023-01-09T05:00:04.677Z,13.73
2023-01-09T05:02:32.300Z,14.63
2023-01-09T05:05:01.226Z,14.98
2023-01-09T05:07:28.590Z,14.50
2023-01-09T05:09:56.212Z,12.52
2023-01-09T05:12:23.573Z,14.43
2023-01-09T05:14:50.950Z,13.70
2023-01-09T05:17:18.563Z,13.75
2023-01-09T05:19:45.875Z,13.80
2023-01-09T05:22:13.394Z,13.43
2023-01-09T05:24:41.042Z,13.77
2023-01-09T05:27:08.396Z,12.75
2023-01-09T05:29:35.839Z,13.73
2023-01-09T05:32:03.479Z,13.20
2023-01-09T05:34:30.902Z,13.00
2023-01-09T05:36:58.322Z,12.27
2023-01-09T05:39:26.184Z,15.63
2023-01-09T05:41:53.645Z,15.23
2023-01-09T05:44:21.160Z,15.43
2023-01-09T05:46:48.763Z,16.80
2023-01-09T05:49:16.256Z,13.95
2023-01-09T05:51:43.645Z,13.02
2023-01-09T05:54:11.253Z,14.85
2023-01-09T05:56:38.595Z,13.10
2023-01-09T05:59:06.014Z,15.18
2023-01-09T06:01:33.684Z,13.85
2023-01-09T06:04:01.356Z,13.90
2023-01-09T06:06:28.689Z,14.00
2023-01-09T06:08:56.076Z,13.05
2023-01-09T06:11:23.717Z,14.07
2023-01-09T06:13:51.165Z,13.20
2023-01-09T06:16:18.632Z,15.77
2023-01-09T06:18:46.489Z,14.63
2023-01-09T06:21:13.817Z,13.70
2023-01-09T06:23:41.171Z,14.65
2023-01-09T06:26:08.802Z,14.20
2023-01-09T06:28:36.283Z,14.13
2023-01-09T06:31:03.664Z,14.45
2023-01-09T06:33:32.105Z,15.48
2023-01-09T06:35:59.515Z,14.77
2023-01-09T06:38:26.860Z,15.45
2023-01-09T06:40:54.605Z,15.77
2023-01-09T06:43:22.051Z,15.40
2023-01-09T06:45:49.500Z,14.57
2023-01-09T06:48:17.126Z,13.55
2023-01-09T06:50:45.890Z,15.63
2023-01-09T06:53:13.238Z,15.18
2023-01-09T06:55:40.851Z,14.75
2023-01-09T06:58:08.406Z,14.90
2023-01-09T07:00:35.907Z,14.30
2023-01-09T07:03:03.634Z,15.30
2023-01-09T07:05:31.283Z,14.68
2023-01-09T07:07:58.623Z,14.35
2023-01-09T07:10:29.312Z,14.75
2023-01-09T07:12:56.785Z,13.82
2023-01-09T07:15:24.149Z,14.45
2023-01-09T07:17:52.287Z,15.38
2023-01-09T07:20:19.755Z,13.70
2023-01-09T07:22:47.289Z,13.77
2023-01-09T07:25:14.939Z,14.05
2023-01-09T07:27:42.444Z,13.57
2023-01-09T07:30:10.449Z,14.68
2023-01-09T07:32:40.395Z,14.82
2023-01-09T07:35:09.027Z,14.75
2023-01-09T07:37:36.411Z,14.52
2023-01-09T07:40:04.257Z,13.35
2023-01-09T07:42:31.833Z,15.02
2023-01-09T07:44:59.301Z,14.87
2023-01-09T07:47:26.914Z,14.90
2023-01-09T07:49:54.436Z,14.50
2023-01-09T07:52:21.797Z,14.13
2023-01-09T07:54:49.519Z,13.85
2023-01-09T07:57:17.095Z,14.02
2023-01-09T07:59:44.427Z,14.38
2023-01-09T08:02:12.432Z,13.68
2023-01-09T08:04:40.100Z,13.75
2023-01-09T08:07:07.538Z,13.13
2023-01-09T08:09:34.885Z,12.60
2023-01-09T08:12:04.181Z,12.37
2023-01-09T08:14:31.641Z,14.07
2023-01-09T08:16:59.032Z,14.70
2023-01-09T08:19:26.660Z,15.50
2023-01-09T08:21:54.075Z,14.80
2023-01-09T08:24:21.458Z,13.85
2023-01-09T08:26:49.090Z,15.05
2023-01-09T08:29:16.442Z,14.87
2023-01-09T08:31:43.851Z,14.70
2023-01-09T08:34:11.535Z,14.98
2023-01-09T08:36:38.872Z,16.17
2023-01-09T08:39:06.292Z,15.02
2023-01-09T08:41:52.860Z,14.82
2023-01-09T08:44:39.197Z,14.68
2023-01-09T08:49:35.015Z,14.32
2023-01-09T08:52:02.462Z,15.50
2023-01-09T08:54:31.403Z,15.65
2023-01-09T08:56:58.853Z,15.00
2023-01-09T08:59:26.259Z,14.80
2023-01-09T09:01:54.069Z,14.00
2023-01-09T09:04:21.472Z,14.75
2023-01-09T09:06:48.887Z,14.45
2023-01-09T09:09:16.535Z,14.63
2023-01-09T09:11:43.987Z,14.93
2023-01-09T09:14:30.032Z,14.77
2023-01-09T09:19:24.870Z,14.15
2023-01-09T09:21:52.210Z,15.95
2023-01-09T09:24:19.939Z,15.45
2023-01-09T09:26:47.408Z,14.48
2023-01-09T09:29:14.812Z,14.85
2023-01-09T09:31:42.443Z,15.00
2023-01-09T09:34:10.608Z,15.00
2023-01-09T09:36:38.076Z,15.48
2023-01-09T09:39:07.424Z,15.50
2023-01-09T09:42:25.808Z,15.98
2023-01-09T09:45:11.906Z,16.17
2023-01-09T09:47:51.993Z,15.13
2023-01-09T09:51:01.683Z,15.60
2023-01-09T09:53:35.444Z,16.05
2023-01-09T09:56:03.227Z,17.15
2023-01-09T09:58:48.639Z,16.73
2023-01-09T10:01:19.496Z,16.33
2023-01-09T10:03:49.037Z,17.62
2023-01-09T10:06:36.757Z,18.27
2023-01-09T10:09:20.969Z,18.33
2023-01-09T10:12:00.159Z,17.73
2023-01-09T10:14:27.799Z,17.25
2023-01-09T10:17:27.479Z,17.02
2023-01-09T10:20:04.993Z,17.17
2023-01-09T10:22:53.396Z,16.27
2023-01-09T10:25:52.140Z,16.70
2023-01-09T10:28:44.773Z,16.60
2023-01-09T10:31:41.789Z,18.83
2023-01-09T10:34:46.669Z,19.48
2023-01-09T10:37:22.895Z,17.02
2023-01-09T10:39:57.897Z,17.60
2023-01-09T10:42:33.471Z,17.17
2023-01-09T10:45:06.718Z,16.73
2023-01-09T10:47:35.976Z,16.37
2023-01-09T10:50:20.933Z,19.15
2023-01-09T10:52:53.369Z,17.58
2023-01-09T10:55:44.046Z,17.92
2023-01-09T10:58:13.314Z,17.70
2023-01-09T11:00:40.814Z,16.30
2023-01-09T11:03:22.358Z,17.15
2023-01-09T11:05:58.266Z,18.20
2023-01-09T11:08:34.487Z,16.65
2023-01-09T11:11:03.916Z,15.77
2023-01-09T11:13:33.189Z,17.55
2023-01-09T11:16:11.013Z,18.33
2023-01-09T11:18:52.836Z,18.58
2023-01-09T11:21:29.231Z,17.52
2023-01-09T11:26:26.596Z,17.83
2023-01-09T11:29:08.111Z,17.05
2023-01-09T11:31:35.908Z,17.60
2023-01-09T11:34:03.785Z,17.87
2023-01-09T11:36:31.271Z,17.90
2023-01-09T11:38:59.480Z,17.00
2023-01-09T11:41:34.626Z,18.30
2023-01-09T11:44:03.268Z,16.42
2023-01-09T11:46:35.032Z,18.08
2023-01-09T11:49:04.748Z,17.98
2023-01-09T11:51:33.880Z,18.33
2023-01-09T11:54:22.780Z,18.83
2023-01-09T11:56:50.454Z,16.95
2023-01-09T11:59:30.579Z,17.25
2023-01-09T12:02:17.033Z,16.83
2023-01-09T12:04:58.632Z,16.40
2023-01-09T12:07:50.506Z,17.27
2023-01-09T12:10:49.479Z,17.85
2023-01-09T12:13:50.260Z,17.75
2023-01-09T12:16:40.216Z,17.52
2023-01-09T12:19:26.593Z,16.92
2023-01-09T12:22:02.727Z,17.75
2023-01-09T12:24:58.919Z,18.17
2023-01-09T12:27:41.745Z,17.17
2023-01-09T12:30:40.039Z,17.33
2023-01-09T12:33:35.672Z,18.48
2023-01-09T12:36:40.801Z,17.62
2023-01-09T12:39:29.617Z,19.80
2023-01-09T12:42:17.573Z,18.80
2023-01-09T12:44:50.707Z,18.83
2023-01-09T12:47:52.649Z,18.52
2023-01-09T12:50:29.477Z,20.15
2023-01-09T12:53:05.964Z,21.55
2023-01-09T12:55:34.902Z,18.52
2023-01-09T12:58:06.772Z,20.02
2023-01-09T13:00:40.430Z,22.45
2023-01-09T13:03:26.607Z,21.02
2023-01-09T13:08:24.380Z,21.12
2023-01-09T13:10:52.270Z,22.83
2023-01-09T13:13:38.429Z,21.55
2023-01-09T13:16:06.881Z,21.40
2023-01-09T13:18:43.893Z,20.95
2023-01-09T13:23:58.765Z,19.90
2023-01-09T13:26:29.331Z,21.27
2023-01-09T13:29:10.195Z,20.08
2023-01-09T13:31:52.700Z,21.62
2023-01-09T13:34:29.501Z,20.90
2023-01-09T13:36:57.097Z,20.02
2023-01-09T13:39:26.454Z,20.42
2023-01-09T13:42:23.138Z,21.85
2023-01-09T13:44:55.954Z,20.92
2023-01-09T13:47:25.546Z,22.30
2023-01-09T13:49:53.015Z,21.67
2023-01-09T13:52:39.386Z,20.60
2023-01-09T13:55:14.901Z,23.33
2023-01-09T13:57:45.240Z,21.30
2023-01-09T14:00:12.783Z,20.88
2023-01-09T14:02:46.923Z,20.98
2023-01-09T14:05:37.177Z,22.55
2023-01-09T14:08:10.864Z,21.67
2023-01-09T14:10:46.273Z,19.87
2023-01-09T14:13:24.759Z,19.37
2023-01-09T14:15:53.063Z,18.85
2023-01-09T14:18:25.501Z,20.95
2023-01-09T14:20:56.627Z,23.33
2023-01-09T14:23:45.946Z,25.48
2023-01-09T14:26:24.141Z,23.62
2023-01-09T14:28:51.829Z,24.67
2023-01-09T14:31:32.548Z,25.25
2023-01-09T14:34:34.170Z,25.15
2023-01-09T14:37:12.540Z,21.90
2023-01-09T14:39:40.729Z,23.15
2023-01-09T14:42:15.795Z,22.25
2023-01-09T14:44:51.035Z,25.33
2023-01-09T14:47:37.462Z,24.37
2023-01-09T14:50:23.955Z,24.23
2023-01-09T14:52:53.166Z,33.22
2023-01-09T14:55:24.698Z,37.40
2023-01-09T14:57:54.878Z,41.40
2023-01-09T15:00:23.321Z,40.30
2023-01-09T15:02:50.878Z,39.07
2023-01-09T15:05:20.379Z,71.30
2023-01-09T15:07:53.695Z,85.65
2023-01-09T15:10:25.447Z,64.07
2023-01-09T15:12:53.750Z,68.93
2023-01-09T15:15:21.592Z,49.13
2023-01-09T15:17:54.447Z,45.65
2023-01-09T15:20:25.181Z,43.70
2023-01-09T15:22:54.609Z,40.85
2023-01-09T15:25:38.029Z,40.37
2023-01-09T15:28:26.926Z,33.83
2023-01-09T15:30:57.093Z,31.05
2023-01-09T15:33:24.467Z,34.72
2023-01-09T15:35:51.920Z,30.80
2023-01-09T15:38:22.794Z,29.87
2023-01-09T15:41:01.497Z,29.77
2023-01-09T15:43:29.309Z,29.52
2023-01-09T15:45:56.981Z,28.52
2023-01-09T15:48:32.972Z,27.62
2023-01-09T15:51:10.394Z,28.65
2023-01-09T15:53:38.061Z,29.52
2023-01-09T15:56:07.559Z,25.75
2023-01-09T15:58:36.360Z,33.30
2023-01-09T16:01:12.561Z,26.85
2023-01-09T16:03:40.253Z,27.92
2023-01-09T16:06:09.574Z,29.65
2023-01-09T16:08:42.378Z,25.83
2023-01-09T16:11:18.780Z,27.90
2023-01-09T16:13:46.208Z,32.00
2023-01-09T16:16:13.846Z,31.33
2023-01-09T16:18:50.568Z,31.58
2023-01-09T16:21:22.423Z,32.28
2023-01-09T16:23:54.843Z,27.73
2023-01-09T16:26:23.827Z,26.17
2023-01-09T16:28:51.891Z,27.95
2023-01-09T16:31:21.263Z,26.00
2023-01-09T16:33:52.173Z,26.05
2023-01-09T16:36:19.829Z,28.90
2023-01-09T16:38:47.379Z,27.23
2023-01-09T16:41:39.906Z,26.40
2023-01-09T16:44:11.722Z,24.00
2023-01-09T16:46:45.632Z,24.95
2023-01-09T16:49:23.715Z,26.25
2023-01-09T16:51:51.458Z,24.45
2023-01-09T16:54:19.183Z,24.95
2023-01-09T16:56:51.030Z,29.58
2023-01-09T16:59:24.652Z,26.02
2023-01-09T17:01:52.821Z,26.15
2023-01-09T17:04:20.638Z,25.40
2023-01-09T17:06:48.216Z,26.98
2023-01-09T17:09:17.397Z,28.27
2023-01-09T17:11:45.115Z,27.60
2023-01-09T17:14:12.902Z,28.12
2023-01-09T17:16:43.293Z,25.90
2023-01-09T17:19:15.632Z,26.23
2023-01-09T17:21:43.054Z,24.37
2023-01-09T17:24:29.443Z,25.65
2023-01-09T17:27:15.577Z,27.25
2023-01-09T17:32:15.860Z,26.20
2023-01-09T17:34:43.765Z,27.85
2023-01-09T17:37:15.461Z,27.55
2023-01-09T17:39:43.581Z,28.08
2023-01-09T17:42:11.328Z,28.77
2023-01-09T17:44:38.719Z,28.20
2023-01-09T17:47:07.204Z,31.37
2023-01-09T17:49:34.868Z,27.53
2023-01-09T17:52:02.291Z,30.63
2023-01-09T17:54:30.046Z,29.97
2023-01-09T17:57:04.349Z,28.37
2023-01-09T17:59:31.694Z,29.20
2023-01-09T18:01:59.466Z,29.03
2023-01-09T18:04:27.084Z,28.58
2023-01-09T18:06:54.684Z,25.67
2023-01-09T18:09:22.031Z,28.55
2023-01-09T18:11:49.661Z,29.30
2023-01-09T18:14:17.715Z,35.05
2023-01-09T18:16:45.360Z,30.90
2023-01-09T18:19:13.042Z,34.00
2023-01-09T18:21:40.403Z,34.28
2023-01-09T18:24:08.756Z,36.80
2023-01-09T18:26:36.362Z,34.72
2023-01-09T18:29:03.873Z,42.38
2023-01-09T18:31:31.401Z,42.67
2023-01-09T18:34:02.123Z,38.95
2023-01-09T18:36:30.142Z,34.08
2023-01-09T18:38:58.662Z,30.77
2023-01-09T18:41:26.422Z,28.50
2023-01-09T18:43:55.448Z,27.35
2023-01-09T18:46:25.763Z,28.02
2023-01-09T18:48:54.161Z,26.75
2023-01-09T18:51:22.017Z,27.65
2023-01-09T18:53:49.593Z,25.00
2023-01-09T18:56:19.119Z,26.70
2023-01-09T18:58:47.047Z,21.98
2023-01-09T19:01:14.926Z,24.73
2023-01-09T19:03:42.685Z,24.12
2023-01-09T19:06:10.330Z,23.92
2023-01-09T19:08:37.712Z,24.55
2023-01-09T19:11:05.464Z,23.75
2023-01-09T19:13:34.527Z,22.98
2023-01-09T19:16:02.180Z,24.12
2023-01-09T19:18:38.516Z,24.65
2023-01-09T19:21:19.482Z,26.12
2023-01-09T19:23:47.472Z,27.45
2023-01-09T19:26:20.548Z,28.43
2023-01-09T19:28:48.214Z,27.10
2023-01-09T19:31:16.253Z,28.83
2023-01-09T19:33:44.270Z,27.62
2023-01-09T19:36:12.009Z,26.08
2023-01-09T19:38:39.493Z,25.30
2023-01-09T19:41:19.244Z,27.15
2023-01-09T19:43:47.640Z,26.40
2023-01-09T19:46:19.884Z,28.15
2023-01-09T19:48:47.630Z,28.55
2023-01-09T19:51:15.816Z,29.10
2023-01-09T19:53:43.230Z,29.12
2023-01-09T19:56:12.874Z,25.15
2023-01-09T19:58:41.011Z,27.80
2023-01-09T20:01:12.356Z,25.98
2023-01-09T20:03:40.914Z,27.00
2023-01-09T20:06:10.166Z,26.80
2023-01-09T20:08:37.742Z,25.77
2023-01-09T20:11:06.689Z,27.48
2023-01-09T20:13:34.529Z,26.85
2023-01-09T20:16:02.420Z,25.40
2023-01-09T20:18:30.698Z,27.25
2023-01-09T20:20:58.090Z,27.00
2023-01-09T20:23:27.471Z,25.53
2023-01-09T20:25:55.345Z,26.30
2023-01-09T20:28:22.867Z,28.73
2023-01-09T20:30:51.574Z,25.70
2023-01-09T20:33:20.105Z,24.83
2023-01-09T20:35:47.597Z,22.30
2023-01-09T20:38:15.028Z,22.90
2023-01-09T20:40:43.974Z,22.23
2023-01-09T20:43:12.429Z,20.77
2023-01-09T20:45:40.240Z,21.67
2023-01-09T20:48:08.263Z,20.10
2023-01-09T20:50:35.670Z,20.13
2023-01-09T20:53:05.961Z,22.03
2023-01-09T20:55:34.803Z,20.93
2023-01-09T20:58:02.281Z,20.70
2023-01-09T21:00:32.129Z,20.37
2023-01-09T21:03:00.029Z,18.30
2023-01-09T21:05:27.388Z,19.67
2023-01-09T21:07:54.743Z,20.00
2023-01-09T21:10:22.410Z,20.40
2023-01-09T21:12:49.857Z,19.93
2023-01-09T21:15:17.969Z,18.13
2023-01-09T21:17:45.546Z,18.63
2023-01-09T21:20:13.924Z,18.97
2023-01-09T21:22:41.367Z,20.20
2023-01-09T21:25:09.207Z,18.57
2023-01-09T21:27:41.084Z,18.83
2023-01-09T21:30:09.644Z,18.60
2023-01-09T21:32:37.089Z,18.13
2023-01-09T21:35:05.792Z,17.33
2023-01-09T21:37:34.504Z,18.17
2023-01-09T21:40:02.113Z,16.33
2023-01-09T21:42:48.296Z,18.02
2023-01-09T21:50:35.635Z,16.77
2023-01-09T21:53:03.250Z,16.40
2023-01-09T21:55:33.607Z,19.30
2023-01-09T21:58:01.622Z,19.33
2023-01-09T22:00:29.138Z,17.30
2023-01-09T22:02:56.821Z,19.75
2023-01-09T22:05:24.673Z,18.83
2023-01-09T22:07:52.025Z,18.83
2023-01-09T22:10:19.631Z,17.50
2023-01-09T22:13:08.794Z,18.65
2023-01-09T22:15:36.466Z,17.33
2023-01-09T22:18:04.086Z,16.50
2023-01-09T22:20:31.695Z,17.93
2023-01-09T22:22:59.397Z,17.55
2023-01-09T22:25:26.740Z,17.23
2023-01-09T22:27:54.087Z,16.58
2023-01-09T22:30:21.786Z,16.77
2023-01-09T22:32:49.472Z,16.95
2023-01-09T22:35:16.969Z,16.13
2023-01-09T22:37:44.632Z,16.48
2023-01-09T22:40:12.303Z,16.20
2023-01-09T22:42:39.703Z,16.33
2023-01-09T22:45:07.944Z,15.68
2023-01-09T22:47:35.321Z,14.25
2023-01-09T22:50:02.738Z,14.82
2023-01-09T22:52:30.438Z,15.73
2023-01-09T22:54:57.836Z,16.02
2023-01-09T22:57:25.156Z,14.98
2023-01-09T22:59:52.825Z,14.93
2023-01-09T23:02:20.332Z,14.95
2023-01-09T23:04:47.737Z,16.05
2023-01-09T23:07:15.349Z,15.48
2023-01-09T23:09:42.714Z,14.30
2023-01-09T23:12:10.096Z,14.02
2023-01-09T23:14:38.121Z,14.63
2023-01-09T23:17:06.309Z,14.77
2023-01-09T23:19:33.799Z,14.90
2023-01-09T23:22:01.832Z,14.43
2023-01-09T23:24:29.382Z,14.50
2023-01-09T23:26:56.851Z,14.73
2023-01-09T23:29:24.687Z,14.82
2023-01-09T23:31:53.668Z,13.60
2023-01-09T23:34:27.437Z,14.40
2023-01-09T23:36:57.269Z,14.20
2023-01-09T23:39:24.817Z,13.62
2023-01-09T23:42:10.936Z,14.50
2023-01-09T23:47:05.706Z,13.55
2023-01-09T23:49:33.122Z,13.15
2023-01-09T23:52:02.344Z,14.63
2023-01-09T23:54:29.671Z,16.33
2023-01-09T23:56:56.999Z,16.50
2023-01-09T23:59:24.608Z,13.65
